CPA811 KBOS-VHHH
Flight info
| Callsign | CPA811 |
|---|---|
| Flight time | N/A |
| Altitude | 33000 |
| Route | LBSTA8 LBSTA DCT QUBIS DCT RODBO DCT IKMAN/M085F330 DCT EPMAN DCT DARUB DCT 70N060W/M085F350 75N060W 80N060W 86N040W DCT ABERI/K0911F350 M153 RAVUL/K0920F370 M153 KUTET T656 GUGLI/K0904F390 T656 GABAL/K0917F380 N615 SULOK/K0920S1160 Y327 POLHO/K0902S1220 G218 TMR/K0893S1190 B458 DADGA/K0893S1220 W37 GUSIV/K0898S1250 W37 PEXID/K0900S1220 W37 OMBEB/K0898S1250 R473 NNX/K0904S1220 R473 WYN W18 NLG W23 ZUH R473 SIERA |
| Aircraft | A359/H-SDE2E3GHIJ3J4J5LM1ORWXY/LB1D1 |
Departure
| Time | N/A |
|---|---|
| Airport | Boston Logan International Airport (KBOS) |
Arrival
| Time | 2026-05-06 03:58 |
|---|---|
| Airport | Hong Kong International Airport (VHHH) |
| Time | Latitude | Longitude | Altitude | Speed | Heading |
|---|---|---|---|---|---|
| 2026-05-06 03:44 | 21.61122 | 113.66515 | 13963 ft | 306 kts | 41° |
| 2026-05-06 03:45 | 21.62643 | 113.68108 | 13625 ft | 304 kts | 41° |
| 2026-05-06 03:45 | 21.64143 | 113.69701 | 13327 ft | 303 kts | 41° |
| 2026-05-06 03:45 | 21.65641 | 113.71292 | 13006 ft | 303 kts | 41° |
| 2026-05-06 03:45 | 21.67182 | 113.72825 | 12703 ft | 300 kts | 39° |
| 2026-05-06 03:46 | 21.68733 | 113.74315 | 12396 ft | 298 kts | 39° |
| 2026-05-06 03:46 | 21.70273 | 113.75798 | 12097 ft | 297 kts | 39° |
| 2026-05-06 03:46 | 21.71803 | 113.77280 | 11783 ft | 295 kts | 39° |
| 2026-05-06 03:46 | 21.73322 | 113.78757 | 11471 ft | 294 kts | 39° |
| 2026-05-06 03:47 | 21.74831 | 113.80228 | 11173 ft | 292 kts | 39° |
| 2026-05-06 03:47 | 21.76335 | 113.81700 | 10863 ft | 294 kts | 39° |
| 2026-05-06 03:47 | 21.77894 | 113.83223 | 10717 ft | 309 kts | 39° |
| 2026-05-06 03:47 | 21.79487 | 113.84778 | 10557 ft | 307 kts | 40° |
| 2026-05-06 03:48 | 21.81076 | 113.86332 | 10103 ft | 310 kts | 39° |
| 2026-05-06 03:48 | 21.82686 | 113.87889 | 9620 ft | 312 kts | 39° |
| 2026-05-06 03:48 | 21.84510 | 113.89076 | 9222 ft | 303 kts | 16° |
| 2026-05-06 03:48 | 21.86523 | 113.89326 | 8914 ft | 292 kts | 351° |
| 2026-05-06 03:49 | 21.88438 | 113.88715 | 8602 ft | 286 kts | 334° |
| 2026-05-06 03:49 | 21.90254 | 113.87825 | 8305 ft | 287 kts | 331° |
| 2026-05-06 03:49 | 21.92058 | 113.86902 | 8019 ft | 287 kts | 332° |
| 2026-05-06 03:49 | 21.93864 | 113.85984 | 7723 ft | 287 kts | 333° |
| 2026-05-06 03:50 | 21.95678 | 113.85073 | 7416 ft | 288 kts | 333° |
| 2026-05-06 03:50 | 21.97495 | 113.84164 | 7116 ft | 288 kts | 333° |
| 2026-05-06 03:50 | 21.99312 | 113.83257 | 6820 ft | 288 kts | 333° |
| 2026-05-06 03:50 | 22.01126 | 113.82353 | 6517 ft | 287 kts | 333° |
| 2026-05-06 03:51 | 22.02939 | 113.81449 | 6203 ft | 287 kts | 333° |
| 2026-05-06 03:51 | 22.04748 | 113.80546 | 5901 ft | 286 kts | 334° |
| 2026-05-06 03:51 | 22.06550 | 113.79649 | 5592 ft | 284 kts | 333° |
| 2026-05-06 03:51 | 22.08346 | 113.78755 | 5305 ft | 285 kts | 334° |
| 2026-05-06 03:52 | 22.10148 | 113.77888 | 5009 ft | 284 kts | 338° |
| 2026-05-06 03:52 | 22.12072 | 113.77414 | 4709 ft | 285 kts | 352° |
| 2026-05-06 03:52 | 22.14043 | 113.77199 | 4395 ft | 283 kts | 355° |
| 2026-05-06 03:52 | 22.15995 | 113.77020 | 4100 ft | 281 kts | 355° |
| 2026-05-06 03:53 | 22.17938 | 113.76835 | 3838 ft | 277 kts | 356° |
| 2026-05-06 03:53 | 22.19823 | 113.76653 | 3664 ft | 266 kts | 356° |
| 2026-05-06 03:53 | 22.21628 | 113.76477 | 3525 ft | 255 kts | 356° |
| 2026-05-06 03:53 | 22.23357 | 113.76306 | 3403 ft | 244 kts | 357° |
| 2026-05-06 03:54 | 22.25003 | 113.76192 | 3282 ft | 231 kts | 6° |
| 2026-05-06 03:54 | 22.26392 | 113.76856 | 3116 ft | 214 kts | 47° |
| 2026-05-06 03:54 | 22.27286 | 113.78045 | 2966 ft | 196 kts | 57° |
| 2026-05-06 03:54 | 22.27779 | 113.79360 | 2629 ft | 183 kts | 79° |
| 2026-05-06 03:55 | 22.28091 | 113.80627 | 2456 ft | 166 kts | 74° |
| 2026-05-06 03:55 | 22.28463 | 113.81775 | 2097 ft | 163 kts | 72° |
| 2026-05-06 03:55 | 22.28883 | 113.82961 | 1559 ft | 171 kts | 70° |
| 2026-05-06 03:55 | 22.29330 | 113.84125 | 1233 ft | 163 kts | 69° |
| 2026-05-06 03:56 | 22.29768 | 113.85229 | 980 ft | 156 kts | 70° |
| 2026-05-06 03:56 | 22.30077 | 113.86312 | 808 ft | 146 kts | 78° |
| 2026-05-06 03:56 | 22.30335 | 113.87340 | 616 ft | 140 kts | 75° |
| 2026-05-06 03:56 | 22.30631 | 113.88321 | 379 ft | 135 kts | 70° |
| 2026-05-06 03:57 | 22.30936 | 113.89257 | 177 ft | 130 kts | 73° |
| 2026-05-06 03:57 | 22.31228 | 113.90199 | 46 ft | 133 kts | 73° |
| 2026-05-06 03:57 | 22.31493 | 113.91041 | 38 ft | 97 kts | 71° |
| 2026-05-06 03:57 | 22.31663 | 113.91575 | 39 ft | 54 kts | 71° |
| 2026-05-06 03:58 | 22.31752 | 113.91849 | 39 ft | 34 kts | 71° |
| 2026-05-06 03:58 | 22.31791 | 113.92016 | 39 ft | 19 kts | 88° |
| 2026-05-06 03:58 | 22.31789 | 113.92138 | 40 ft | 16 kts | 99° |
| 2026-05-06 03:58 | 22.31771 | 113.92236 | 39 ft | 13 kts | 102° |
| 2026-05-06 03:59 | 22.31750 | 113.92343 | 38 ft | 16 kts | 102° |
| 2026-05-06 03:59 | 22.31692 | 113.92424 | 38 ft | 14 kts | 163° |
| 2026-05-06 03:59 | 22.31623 | 113.92472 | 38 ft | 12 kts | 127° |
| 2026-05-06 03:59 | 22.31582 | 113.92560 | 38 ft | 14 kts | 116° |
| 2026-05-06 04:00 | 22.31535 | 113.92662 | 38 ft | 16 kts | 116° |
| 2026-05-06 04:00 | 22.31494 | 113.92759 | 38 ft | 12 kts | 105° |
| 2026-05-06 04:00 | 22.31488 | 113.92834 | 38 ft | 4 kts | 126° |
| 2026-05-06 04:00 | 22.31461 | 113.92845 | 38 ft | 5 kts | 158° |
| 2026-05-06 04:01 | 22.31419 | 113.92861 | 38 ft | 2 kts | 161° |
| 2026-05-06 04:01 | 22.31407 | 113.92866 | 38 ft | 0 kts | 161° |